sensor_id;sensor_type;location;lat;lon;timestamp;temperature;humidity
17128;DHT22;8679;50.842;4.322;2023-07-31T00:00:27;17.20;99.90
17128;DHT22;8679;50.842;4.322;2023-07-31T00:02:53;17.20;99.90
17128;DHT22;8679;50.842;4.322;2023-07-31T00:05:19;17.20;99.90
17128;DHT22;8679;50.842;4.322;2023-07-31T00:07:45;17.30;99.90
17128;DHT22;8679;50.842;4.322;2023-07-31T00:10:10;17.30;99.90
17128;DHT22;8679;50.842;4.322;2023-07-31T00:12:37;17.30;99.90
17128;DHT22;8679;50.842;4.322;2023-07-31T00:15:03;17.30;99.90
17128;DHT22;8679;50.842;4.322;2023-07-31T00:17:30;17.30;99.90
17128;DHT22;8679;50.842;4.322;2023-07-31T00:19:55;17.40;99.90
17128;DHT22;8679;50.842;4.322;2023-07-31T00:22:21;17.40;99.90
17128;DHT22;8679;50.842;4.322;2023-07-31T00:24:46;17.40;99.90
17128;DHT22;8679;50.842;4.322;2023-07-31T00:27:12;17.30;99.90
17128;DHT22;8679;50.842;4.322;2023-07-31T00:29:38;17.40;99.90
17128;DHT22;8679;50.842;4.322;2023-07-31T00:32:04;17.40;99.90
17128;DHT22;8679;50.842;4.322;2023-07-31T00:34:29;17.40;99.90
17128;DHT22;8679;50.842;4.322;2023-07-31T00:36:55;17.50;99.90
17128;DHT22;8679;50.842;4.322;2023-07-31T00:39:21;17.40;99.90
17128;DHT22;8679;50.842;4.322;2023-07-31T00:41:46;17.40;99.90
17128;DHT22;8679;50.842;4.322;2023-07-31T00:44:12;17.40;99.90
17128;DHT22;8679;50.842;4.322;2023-07-31T00:46:38;17.50;99.90
17128;DHT22;8679;50.842;4.322;2023-07-31T00:49:04;17.50;99.90
17128;DHT22;8679;50.842;4.322;2023-07-31T00:51:30;17.50;99.90
17128;DHT22;8679;50.842;4.322;2023-07-31T00:53:55;17.50;99.90
17128;DHT22;8679;50.842;4.322;2023-07-31T00:56:22;17.50;99.90
17128;DHT22;8679;50.842;4.322;2023-07-31T00:58:49;17.50;99.90
17128;DHT22;8679;50.842;4.322;2023-07-31T01:01:14;17.50;99.90
17128;DHT22;8679;50.842;4.322;2023-07-31T01:03:40;17.50;99.90
17128;DHT22;8679;50.842;4.322;2023-07-31T01:09:00;17.50;99.90
17128;DHT22;8679;50.842;4.322;2023-07-31T01:11:30;17.60;99.90
17128;DHT22;8679;50.842;4.322;2023-07-31T01:13:57;17.50;99.90
17128;DHT22;8679;50.842;4.322;2023-07-31T01:16:23;17.50;99.90
17128;DHT22;8679;50.842;4.322;2023-07-31T01:18:48;17.50;99.90
17128;DHT22;8679;50.842;4.322;2023-07-31T01:21:39;17.50;99.90
17128;DHT22;8679;50.842;4.322;2023-07-31T01:24:22;17.60;99.90
17128;DHT22;8679;50.842;4.322;2023-07-31T01:26:56;17.60;99.90
17128;DHT22;8679;50.842;4.322;2023-07-31T01:31:53;17.60;99.90
17128;DHT22;8679;50.842;4.322;2023-07-31T01:34:21;17.60;99.90
17128;DHT22;8679;50.842;4.322;2023-07-31T01:36:47;17.60;99.90
17128;DHT22;8679;50.842;4.322;2023-07-31T01:39:13;17.50;99.90
17128;DHT22;8679;50.842;4.322;2023-07-31T01:41:41;17.50;99.90
17128;DHT22;8679;50.842;4.322;2023-07-31T01:44:07;17.50;99.90
17128;DHT22;8679;50.842;4.322;2023-07-31T01:46:32;17.50;99.90
17128;DHT22;8679;50.842;4.322;2023-07-31T01:48:58;17.50;99.90
17128;DHT22;8679;50.842;4.322;2023-07-31T01:51:23;17.50;99.90
17128;DHT22;8679;50.842;4.322;2023-07-31T01:53:49;17.50;99.90
17128;DHT22;8679;50.842;4.322;2023-07-31T01:56:15;17.50;99.90
17128;DHT22;8679;50.842;4.322;2023-07-31T01:58:41;17.60;99.90
17128;DHT22;8679;50.842;4.322;2023-07-31T02:01:06;17.60;99.90
17128;DHT22;8679;50.842;4.322;2023-07-31T02:03:32;17.60;99.90
17128;DHT22;8679;50.842;4.322;2023-07-31T02:05:57;17.50;99.90
17128;DHT22;8679;50.842;4.322;2023-07-31T02:08:23;17.50;99.90
17128;DHT22;8679;50.842;4.322;2023-07-31T02:10:48;17.50;99.90
17128;DHT22;8679;50.842;4.322;2023-07-31T02:13:14;17.60;99.90
17128;DHT22;8679;50.842;4.322;2023-07-31T02:15:40;17.60;99.90
17128;DHT22;8679;50.842;4.322;2023-07-31T02:18:05;17.60;99.90
17128;DHT22;8679;50.842;4.322;2023-07-31T02:20:34;17.60;99.90
17128;DHT22;8679;50.842;4.322;2023-07-31T02:23:00;17.60;99.90
17128;DHT22;8679;50.842;4.322;2023-07-31T02:25:26;17.50;99.90
17128;DHT22;8679;50.842;4.322;2023-07-31T02:27:51;17.60;99.90
17128;DHT22;8679;50.842;4.322;2023-07-31T02:30:17;17.60;99.90
17128;DHT22;8679;50.842;4.322;2023-07-31T02:32:43;17.60;99.90
17128;DHT22;8679;50.842;4.322;2023-07-31T02:35:08;17.60;99.90
17128;DHT22;8679;50.842;4.322;2023-07-31T02:37:34;17.60;99.90
17128;DHT22;8679;50.842;4.322;2023-07-31T02:39:59;17.60;99.90
17128;DHT22;8679;50.842;4.322;2023-07-31T02:42:25;17.50;99.90
17128;DHT22;8679;50.842;4.322;2023-07-31T02:44:51;17.60;99.90
17128;DHT22;8679;50.842;4.322;2023-07-31T02:47:21;17.60;99.90
17128;DHT22;8679;50.842;4.322;2023-07-31T02:49:47;17.60;99.90
17128;DHT22;8679;50.842;4.322;2023-07-31T02:52:13;17.60;99.90
17128;DHT22;8679;50.842;4.322;2023-07-31T02:54:38;17.60;99.90
17128;DHT22;8679;50.842;4.322;2023-07-31T02:57:04;17.60;99.90
17128;DHT22;8679;50.842;4.322;2023-07-31T02:59:30;17.50;99.90
17128;DHT22;8679;50.842;4.322;2023-07-31T03:01:56;17.50;99.90
17128;DHT22;8679;50.842;4.322;2023-07-31T03:04:21;17.50;99.90
17128;DHT22;8679;50.842;4.322;2023-07-31T03:06:47;17.50;99.90
17128;DHT22;8679;50.842;4.322;2023-07-31T03:09:12;17.50;99.90
17128;DHT22;8679;50.842;4.322;2023-07-31T03:11:38;17.50;99.90
17128;DHT22;8679;50.842;4.322;2023-07-31T03:14:04;17.50;99.90
17128;DHT22;8679;50.842;4.322;2023-07-31T03:16:29;17.50;99.90
17128;DHT22;8679;50.842;4.322;2023-07-31T03:18:55;17.40;99.90
17128;DHT22;8679;50.842;4.322;2023-07-31T03:21:21;17.40;99.90
17128;DHT22;8679;50.842;4.322;2023-07-31T03:23:46;17.30;99.90
17128;DHT22;8679;50.842;4.322;2023-07-31T03:26:12;17.30;99.90
17128;DHT22;8679;50.842;4.322;2023-07-31T03:28:38;17.30;99.90
17128;DHT22;8679;50.842;4.322;2023-07-31T03:31:03;17.20;99.90
17128;DHT22;8679;50.842;4.322;2023-07-31T03:33:29;17.10;99.90
17128;DHT22;8679;50.842;4.322;2023-07-31T03:35:55;17.10;99.90
17128;DHT22;8679;50.842;4.322;2023-07-31T03:38:20;17.10;99.90
17128;DHT22;8679;50.842;4.322;2023-07-31T03:40:46;17.10;99.90
17128;DHT22;8679;50.842;4.322;2023-07-31T03:43:12;17.10;99.90
17128;DHT22;8679;50.842;4.322;2023-07-31T03:45:37;17.10;99.90
17128;DHT22;8679;50.842;4.322;2023-07-31T03:48:04;17.10;99.90
17128;DHT22;8679;50.842;4.322;2023-07-31T03:50:29;17.10;99.90
17128;DHT22;8679;50.842;4.322;2023-07-31T03:52:55;17.20;99.90
17128;DHT22;8679;50.842;4.322;2023-07-31T03:55:21;17.20;99.90
17128;DHT22;8679;50.842;4.322;2023-07-31T03:57:47;17.20;99.90
17128;DHT22;8679;50.842;4.322;2023-07-31T04:00:13;17.10;99.90
17128;DHT22;8679;50.842;4.322;2023-07-31T04:02:39;17.10;99.90
17128;DHT22;8679;50.842;4.322;2023-07-31T04:05:04;17.10;99.90
17128;DHT22;8679;50.842;4.322;2023-07-31T04:07:30;17.10;99.90
17128;DHT22;8679;50.842;4.322;2023-07-31T04:09:57;17.10;99.90
17128;DHT22;8679;50.842;4.322;2023-07-31T04:12:23;17.00;99.90
17128;DHT22;8679;50.842;4.322;2023-07-31T04:14:50;17.00;99.90
17128;DHT22;8679;50.842;4.322;2023-07-31T04:17:17;17.00;99.90
17128;DHT22;8679;50.842;4.322;2023-07-31T04:19:42;17.00;99.90
17128;DHT22;8679;50.842;4.322;2023-07-31T04:22:08;17.00;99.90
17128;DHT22;8679;50.842;4.322;2023-07-31T04:24:33;17.00;99.90
17128;DHT22;8679;50.842;4.322;2023-07-31T04:26:59;17.00;99.90
17128;DHT22;8679;50.842;4.322;2023-07-31T04:29:25;17.00;99.90
17128;DHT22;8679;50.842;4.322;2023-07-31T04:31:50;17.00;99.90
17128;DHT22;8679;50.842;4.322;2023-07-31T04:34:16;17.10;99.90
17128;DHT22;8679;50.842;4.322;2023-07-31T04:36:41;17.10;99.90
17128;DHT22;8679;50.842;4.322;2023-07-31T04:39:07;17.10;99.90
17128;DHT22;8679;50.842;4.322;2023-07-31T04:41:33;17.20;99.90
17128;DHT22;8679;50.842;4.322;2023-07-31T04:43:58;17.10;99.90
17128;DHT22;8679;50.842;4.322;2023-07-31T04:46:24;17.20;99.90
17128;DHT22;8679;50.842;4.322;2023-07-31T04:48:50;17.10;99.90
17128;DHT22;8679;50.842;4.322;2023-07-31T04:51:15;17.20;99.90
17128;DHT22;8679;50.842;4.322;2023-07-31T04:53:41;17.20;99.90
17128;DHT22;8679;50.842;4.322;2023-07-31T04:56:07;17.20;99.90
17128;DHT22;8679;50.842;4.322;2023-07-31T04:58:32;17.20;99.90
17128;DHT22;8679;50.842;4.322;2023-07-31T05:00:58;17.20;99.90
17128;DHT22;8679;50.842;4.322;2023-07-31T05:03:24;17.20;99.90
17128;DHT22;8679;50.842;4.322;2023-07-31T05:05:50;17.10;99.90
17128;DHT22;8679;50.842;4.322;2023-07-31T05:08:16;17.10;99.90
17128;DHT22;8679;50.842;4.322;2023-07-31T05:10:43;17.00;99.90
17128;DHT22;8679;50.842;4.322;2023-07-31T05:13:09;17.00;99.90
17128;DHT22;8679;50.842;4.322;2023-07-31T05:15:34;16.90;99.90
17128;DHT22;8679;50.842;4.322;2023-07-31T05:18:00;16.80;99.90
17128;DHT22;8679;50.842;4.322;2023-07-31T05:20:25;16.80;99.90
17128;DHT22;8679;50.842;4.322;2023-07-31T05:22:53;16.70;99.90
17128;DHT22;8679;50.842;4.322;2023-07-31T05:25:18;16.70;99.90
17128;DHT22;8679;50.842;4.322;2023-07-31T05:27:44;16.60;99.90
17128;DHT22;8679;50.842;4.322;2023-07-31T05:30:10;16.60;99.90
17128;DHT22;8679;50.842;4.322;2023-07-31T05:32:35;16.60;99.90
17128;DHT22;8679;50.842;4.322;2023-07-31T05:35:01;16.60;99.90
17128;DHT22;8679;50.842;4.322;2023-07-31T05:37:27;16.60;99.90
17128;DHT22;8679;50.842;4.322;2023-07-31T05:39:52;16.60;99.90
17128;DHT22;8679;50.842;4.322;2023-07-31T05:42:18;16.60;99.90
17128;DHT22;8679;50.842;4.322;2023-07-31T05:44:44;16.70;99.90
17128;DHT22;8679;50.842;4.322;2023-07-31T05:47:09;16.70;99.90
17128;DHT22;8679;50.842;4.322;2023-07-31T05:49:35;16.70;99.90
17128;DHT22;8679;50.842;4.322;2023-07-31T05:52:01;16.70;99.90
17128;DHT22;8679;50.842;4.322;2023-07-31T05:54:26;16.70;99.90
17128;DHT22;8679;50.842;4.322;2023-07-31T05:56:52;16.70;99.90
17128;DHT22;8679;50.842;4.322;2023-07-31T05:59:18;16.70;99.90
17128;DHT22;8679;50.842;4.322;2023-07-31T06:01:43;16.80;99.90
17128;DHT22;8679;50.842;4.322;2023-07-31T06:04:09;16.80;99.90
17128;DHT22;8679;50.842;4.322;2023-07-31T06:06:35;16.80;99.90
17128;DHT22;8679;50.842;4.322;2023-07-31T06:09:00;16.80;99.90
17128;DHT22;8679;50.842;4.322;2023-07-31T06:11:26;16.90;99.90
17128;DHT22;8679;50.842;4.322;2023-07-31T06:13:52;16.90;99.90
17128;DHT22;8679;50.842;4.322;2023-07-31T06:16:17;16.90;99.90
17128;DHT22;8679;50.842;4.322;2023-07-31T06:18:43;16.90;99.90
17128;DHT22;8679;50.842;4.322;2023-07-31T06:21:10;16.90;99.90
17128;DHT22;8679;50.842;4.322;2023-07-31T06:23:36;17.00;99.90
17128;DHT22;8679;50.842;4.322;2023-07-31T06:26:02;17.00;99.90
17128;DHT22;8679;50.842;4.322;2023-07-31T06:28:28;17.00;99.90
17128;DHT22;8679;50.842;4.322;2023-07-31T06:31:00;17.00;99.90
17128;DHT22;8679;50.842;4.322;2023-07-31T06:33:26;17.10;99.90
17128;DHT22;8679;50.842;4.322;2023-07-31T06:35:52;17.10;99.90
17128;DHT22;8679;50.842;4.322;2023-07-31T06:38:26;17.10;99.90
17128;DHT22;8679;50.842;4.322;2023-07-31T06:40:51;17.10;99.90
17128;DHT22;8679;50.842;4.322;2023-07-31T06:43:17;17.20;99.90
17128;DHT22;8679;50.842;4.322;2023-07-31T06:45:43;17.20;99.90
17128;DHT22;8679;50.842;4.322;2023-07-31T06:48:09;17.30;99.90
17128;DHT22;8679;50.842;4.322;2023-07-31T06:50:34;17.30;99.90
17128;DHT22;8679;50.842;4.322;2023-07-31T06:53:00;17.40;99.90
17128;DHT22;8679;50.842;4.322;2023-07-31T06:55:26;17.50;99.90
17128;DHT22;8679;50.842;4.322;2023-07-31T06:57:54;17.50;99.90
17128;DHT22;8679;50.842;4.322;2023-07-31T07:00:21;17.60;99.90
17128;DHT22;8679;50.842;4.322;2023-07-31T07:02:47;17.70;99.90
17128;DHT22;8679;50.842;4.322;2023-07-31T07:05:13;17.70;99.90
17128;DHT22;8679;50.842;4.322;2023-07-31T07:07:40;17.70;99.90
17128;DHT22;8679;50.842;4.322;2023-07-31T07:10:06;17.70;99.90
17128;DHT22;8679;50.842;4.322;2023-07-31T07:12:35;17.80;99.90
17128;DHT22;8679;50.842;4.322;2023-07-31T07:15:01;17.80;99.90
17128;DHT22;8679;50.842;4.322;2023-07-31T07:17:28;17.90;99.90
17128;DHT22;8679;50.842;4.322;2023-07-31T07:19:56;17.90;99.90
17128;DHT22;8679;50.842;4.322;2023-07-31T07:22:23;17.90;99.90
17128;DHT22;8679;50.842;4.322;2023-07-31T07:24:48;17.80;99.90
17128;DHT22;8679;50.842;4.322;2023-07-31T07:27:14;17.80;99.90
17128;DHT22;8679;50.842;4.322;2023-07-31T07:29:40;17.80;99.90
17128;DHT22;8679;50.842;4.322;2023-07-31T07:32:06;17.90;99.90
17128;DHT22;8679;50.842;4.322;2023-07-31T07:34:31;17.90;99.90
17128;DHT22;8679;50.842;4.322;2023-07-31T07:36:57;17.90;99.90
17128;DHT22;8679;50.842;4.322;2023-07-31T07:39:23;17.90;99.90
17128;DHT22;8679;50.842;4.322;2023-07-31T07:41:48;17.90;99.90
17128;DHT22;8679;50.842;4.322;2023-07-31T07:44:14;18.00;99.90
17128;DHT22;8679;50.842;4.322;2023-07-31T07:46:40;18.00;99.90
17128;DHT22;8679;50.842;4.322;2023-07-31T07:49:06;18.00;99.90
17128;DHT22;8679;50.842;4.322;2023-07-31T07:51:32;18.00;99.90
17128;DHT22;8679;50.842;4.322;2023-07-31T07:53:58;18.00;99.90
17128;DHT22;8679;50.842;4.322;2023-07-31T07:56:25;18.00;99.90
17128;DHT22;8679;50.842;4.322;2023-07-31T07:58:51;18.00;99.90
17128;DHT22;8679;50.842;4.322;2023-07-31T08:01:16;18.00;99.90
17128;DHT22;8679;50.842;4.322;2023-07-31T08:03:42;18.00;99.90
17128;DHT22;8679;50.842;4.322;2023-07-31T08:06:08;18.10;99.90
17128;DHT22;8679;50.842;4.322;2023-07-31T08:15:55;18.00;99.90
17128;DHT22;8679;50.842;4.322;2023-07-31T08:18:21;18.00;99.90
17128;DHT22;8679;50.842;4.322;2023-07-31T08:20:47;18.00;99.90
17128;DHT22;8679;50.842;4.322;2023-07-31T08:23:13;18.00;99.90
17128;DHT22;8679;50.842;4.322;2023-07-31T08:25:38;17.90;99.90
17128;DHT22;8679;50.842;4.322;2023-07-31T08:28:05;17.90;99.90
17128;DHT22;8679;50.842;4.322;2023-07-31T08:30:31;17.80;99.90
17128;DHT22;8679;50.842;4.322;2023-07-31T08:32:59;17.80;99.90
17128;DHT22;8679;50.842;4.322;2023-07-31T08:35:26;17.80;99.90
17128;DHT22;8679;50.842;4.322;2023-07-31T08:37:54;17.80;99.90
17128;DHT22;8679;50.842;4.322;2023-07-31T08:40:19;17.80;99.90
17128;DHT22;8679;50.842;4.322;2023-07-31T08:42:48;17.80;99.90
17128;DHT22;8679;50.842;4.322;2023-07-31T08:45:19;17.80;99.90
17128;DHT22;8679;50.842;4.322;2023-07-31T08:47:46;17.80;99.90
17128;DHT22;8679;50.842;4.322;2023-07-31T08:50:13;17.80;99.90
17128;DHT22;8679;50.842;4.322;2023-07-31T08:52:39;17.70;99.90
17128;DHT22;8679;50.842;4.322;2023-07-31T08:55:06;17.70;99.90
17128;DHT22;8679;50.842;4.322;2023-07-31T08:57:34;17.70;99.90
17128;DHT22;8679;50.842;4.322;2023-07-31T09:00:00;17.70;99.90
17128;DHT22;8679;50.842;4.322;2023-07-31T09:02:34;17.70;99.90
17128;DHT22;8679;50.842;4.322;2023-07-31T09:05:01;17.70;99.90
17128;DHT22;8679;50.842;4.322;2023-07-31T09:07:29;17.80;99.90
17128;DHT22;8679;50.842;4.322;2023-07-31T09:09:54;17.80;99.90
17128;DHT22;8679;50.842;4.322;2023-07-31T09:12:20;17.90;99.90
17128;DHT22;8679;50.842;4.322;2023-07-31T09:14:47;18.00;99.90
17128;DHT22;8679;50.842;4.322;2023-07-31T09:17:13;18.00;99.90
17128;DHT22;8679;50.842;4.322;2023-07-31T09:19:38;18.00;99.90
17128;DHT22;8679;50.842;4.322;2023-07-31T09:22:07;18.10;99.90
17128;DHT22;8679;50.842;4.322;2023-07-31T09:24:34;18.20;99.90
17128;DHT22;8679;50.842;4.322;2023-07-31T09:27:00;18.30;99.90
17128;DHT22;8679;50.842;4.322;2023-07-31T09:29:28;18.30;99.90
17128;DHT22;8679;50.842;4.322;2023-07-31T09:31:55;18.40;99.90
17128;DHT22;8679;50.842;4.322;2023-07-31T09:34:36;18.40;99.90
17128;DHT22;8679;50.842;4.322;2023-07-31T09:37:04;18.30;99.90
17128;DHT22;8679;50.842;4.322;2023-07-31T09:39:30;18.20;99.90
17128;DHT22;8679;50.842;4.322;2023-07-31T09:41:57;18.10;99.90
17128;DHT22;8679;50.842;4.322;2023-07-31T09:44:38;18.00;99.90
17128;DHT22;8679;50.842;4.322;2023-07-31T09:47:05;18.00;99.90
17128;DHT22;8679;50.842;4.322;2023-07-31T09:49:31;18.00;99.90
17128;DHT22;8679;50.842;4.322;2023-07-31T09:51:56;17.90;99.90
17128;DHT22;8679;50.842;4.322;2023-07-31T09:54:22;17.90;99.90
17128;DHT22;8679;50.842;4.322;2023-07-31T09:56:48;17.80;99.90
17128;DHT22;8679;50.842;4.322;2023-07-31T09:59:19;17.80;99.90
17128;DHT22;8679;50.842;4.322;2023-07-31T10:01:46;17.70;99.90
17128;DHT22;8679;50.842;4.322;2023-07-31T10:04:13;17.70;99.90
17128;DHT22;8679;50.842;4.322;2023-07-31T10:06:40;17.70;99.90
17128;DHT22;8679;50.842;4.322;2023-07-31T10:09:09;17.70;99.90
17128;DHT22;8679;50.842;4.322;2023-07-31T10:11:53;17.80;99.90
17128;DHT22;8679;50.842;4.322;2023-07-31T10:14:21;17.80;99.90
17128;DHT22;8679;50.842;4.322;2023-07-31T10:16:49;17.90;99.90
17128;DHT22;8679;50.842;4.322;2023-07-31T10:19:16;17.90;99.90
17128;DHT22;8679;50.842;4.322;2023-07-31T10:21:43;18.00;99.90
17128;DHT22;8679;50.842;4.322;2023-07-31T10:24:09;18.10;99.90
17128;DHT22;8679;50.842;4.322;2023-07-31T10:26:35;18.10;99.90
17128;DHT22;8679;50.842;4.322;2023-07-31T10:29:03;18.20;99.90
17128;DHT22;8679;50.842;4.322;2023-07-31T10:31:30;18.30;99.90
17128;DHT22;8679;50.842;4.322;2023-07-31T10:33:59;18.40;99.90
17128;DHT22;8679;50.842;4.322;2023-07-31T10:36:26;18.40;99.90
17128;DHT22;8679;50.842;4.322;2023-07-31T10:38:52;18.40;99.90
17128;DHT22;8679;50.842;4.322;2023-07-31T10:41:30;18.40;99.90
17128;DHT22;8679;50.842;4.322;2023-07-31T10:44:03;18.50;99.90
17128;DHT22;8679;50.842;4.322;2023-07-31T10:46:29;18.60;99.90
17128;DHT22;8679;50.842;4.322;2023-07-31T10:48:59;18.70;99.90
17128;DHT22;8679;50.842;4.322;2023-07-31T10:51:32;18.80;99.90
17128;DHT22;8679;50.842;4.322;2023-07-31T10:54:17;18.90;99.90
17128;DHT22;8679;50.842;4.322;2023-07-31T10:56:47;18.90;99.90
17128;DHT22;8679;50.842;4.322;2023-07-31T10:59:15;19.00;99.90
17128;DHT22;8679;50.842;4.322;2023-07-31T11:01:54;19.10;99.90
17128;DHT22;8679;50.842;4.322;2023-07-31T11:04:26;19.20;99.90
17128;DHT22;8679;50.842;4.322;2023-07-31T11:07:02;19.20;99.90
17128;DHT22;8679;50.842;4.322;2023-07-31T11:09:31;19.30;99.90
17128;DHT22;8679;50.842;4.322;2023-07-31T11:11:59;19.40;99.90
17128;DHT22;8679;50.842;4.322;2023-07-31T11:14:25;19.50;99.90
17128;DHT22;8679;50.842;4.322;2023-07-31T11:16:51;19.50;99.90
17128;DHT22;8679;50.842;4.322;2023-07-31T11:19:24;19.50;99.90
17128;DHT22;8679;50.842;4.322;2023-07-31T11:21:51;19.50;99.90
17128;DHT22;8679;50.842;4.322;2023-07-31T11:24:18;19.50;99.90
17128;DHT22;8679;50.842;4.322;2023-07-31T11:26:51;19.50;99.90
17128;DHT22;8679;50.842;4.322;2023-07-31T11:29:18;19.40;99.90
17128;DHT22;8679;50.842;4.322;2023-07-31T11:31:44;19.40;99.90
17128;DHT22;8679;50.842;4.322;2023-07-31T11:34:10;19.40;99.90
17128;DHT22;8679;50.842;4.322;2023-07-31T11:36:36;19.50;99.90
17128;DHT22;8679;50.842;4.322;2023-07-31T11:39:08;19.50;99.90
17128;DHT22;8679;50.842;4.322;2023-07-31T11:41:34;19.50;99.90
17128;DHT22;8679;50.842;4.322;2023-07-31T11:44:00;19.60;99.90
17128;DHT22;8679;50.842;4.322;2023-07-31T11:46:26;19.60;99.90
17128;DHT22;8679;50.842;4.322;2023-07-31T11:48:52;19.60;99.90
17128;DHT22;8679;50.842;4.322;2023-07-31T11:51:24;19.60;99.90
17128;DHT22;8679;50.842;4.322;2023-07-31T11:53:52;19.60;99.90
17128;DHT22;8679;50.842;4.322;2023-07-31T11:56:20;19.60;99.90
17128;DHT22;8679;50.842;4.322;2023-07-31T11:58:47;19.60;99.90
17128;DHT22;8679;50.842;4.322;2023-07-31T12:01:15;19.60;99.90
17128;DHT22;8679;50.842;4.322;2023-07-31T12:03:43;19.70;99.90
17128;DHT22;8679;50.842;4.322;2023-07-31T12:06:09;19.80;99.90
17128;DHT22;8679;50.842;4.322;2023-07-31T12:08:36;19.90;99.90
17128;DHT22;8679;50.842;4.322;2023-07-31T12:11:04;19.90;99.90
17128;DHT22;8679;50.842;4.322;2023-07-31T12:13:31;19.90;99.90
17128;DHT22;8679;50.842;4.322;2023-07-31T12:16:01;19.90;99.90
17128;DHT22;8679;50.842;4.322;2023-07-31T12:18:30;19.90;99.90
17128;DHT22;8679;50.842;4.322;2023-07-31T12:21:00;19.90;99.90
17128;DHT22;8679;50.842;4.322;2023-07-31T12:23:28;19.90;99.90
17128;DHT22;8679;50.842;4.322;2023-07-31T12:28:29;19.90;99.90
17128;DHT22;8679;50.842;4.322;2023-07-31T12:30:59;20.00;99.90
17128;DHT22;8679;50.842;4.322;2023-07-31T12:33:34;20.00;99.90
17128;DHT22;8679;50.842;4.322;2023-07-31T12:36:07;20.10;99.90
17128;DHT22;8679;50.842;4.322;2023-07-31T12:38:34;20.20;99.90
17128;DHT22;8679;50.842;4.322;2023-07-31T12:40:59;20.20;99.90
17128;DHT22;8679;50.842;4.322;2023-07-31T12:43:25;20.30;99.90
17128;DHT22;8679;50.842;4.322;2023-07-31T12:45:51;20.40;99.90
17128;DHT22;8679;50.842;4.322;2023-07-31T12:48:17;20.50;99.90
17128;DHT22;8679;50.842;4.322;2023-07-31T12:50:42;20.50;99.90
17128;DHT22;8679;50.842;4.322;2023-07-31T12:53:08;20.50;99.90
17128;DHT22;8679;50.842;4.322;2023-07-31T12:55:34;20.60;99.90
17128;DHT22;8679;50.842;4.322;2023-07-31T12:58:03;20.50;99.90
17128;DHT22;8679;50.842;4.322;2023-07-31T13:00:29;20.30;99.90
17128;DHT22;8679;50.842;4.322;2023-07-31T13:02:55;20.20;99.90
17128;DHT22;8679;50.842;4.322;2023-07-31T13:05:20;20.20;99.90
17128;DHT22;8679;50.842;4.322;2023-07-31T13:07:47;20.10;99.90
17128;DHT22;8679;50.842;4.322;2023-07-31T13:10:13;20.00;99.90
17128;DHT22;8679;50.842;4.322;2023-07-31T13:12:38;19.90;99.90
17128;DHT22;8679;50.842;4.322;2023-07-31T13:15:05;19.80;99.90
17128;DHT22;8679;50.842;4.322;2023-07-31T13:17:31;19.60;99.90
17128;DHT22;8679;50.842;4.322;2023-07-31T13:19:57;19.30;99.90
17128;DHT22;8679;50.842;4.322;2023-07-31T13:22:23;19.30;99.90
17128;DHT22;8679;50.842;4.322;2023-07-31T13:24:49;19.10;99.90
17128;DHT22;8679;50.842;4.322;2023-07-31T13:27:15;19.10;99.90
17128;DHT22;8679;50.842;4.322;2023-07-31T13:29:50;19.00;99.90
17128;DHT22;8679;50.842;4.322;2023-07-31T13:32:17;19.00;99.90
17128;DHT22;8679;50.842;4.322;2023-07-31T13:34:43;18.90;99.90
17128;DHT22;8679;50.842;4.322;2023-07-31T13:37:09;18.70;99.90
17128;DHT22;8679;50.842;4.322;2023-07-31T13:39:34;18.60;99.90
17128;DHT22;8679;50.842;4.322;2023-07-31T13:42:01;18.50;99.90
17128;DHT22;8679;50.842;4.322;2023-07-31T13:44:27;18.40;99.90
17128;DHT22;8679;50.842;4.322;2023-07-31T13:46:53;18.30;99.90
17128;DHT22;8679;50.842;4.322;2023-07-31T13:49:18;18.30;99.90
17128;DHT22;8679;50.842;4.322;2023-07-31T13:51:44;18.30;99.90
17128;DHT22;8679;50.842;4.322;2023-07-31T13:54:10;18.30;99.90
17128;DHT22;8679;50.842;4.322;2023-07-31T13:59:06;18.30;99.90
17128;DHT22;8679;50.842;4.322;2023-07-31T14:03:58;18.20;99.90
17128;DHT22;8679;50.842;4.322;2023-07-31T14:06:24;18.20;99.90
17128;DHT22;8679;50.842;4.322;2023-07-31T14:08:49;18.20;99.90
17128;DHT22;8679;50.842;4.322;2023-07-31T14:11:15;18.20;99.90
17128;DHT22;8679;50.842;4.322;2023-07-31T14:13:41;18.20;99.90
17128;DHT22;8679;50.842;4.322;2023-07-31T14:16:06;18.20;99.90
17128;DHT22;8679;50.842;4.322;2023-07-31T14:18:32;18.20;99.90
17128;DHT22;8679;50.842;4.322;2023-07-31T14:20:58;18.20;99.90
17128;DHT22;8679;50.842;4.322;2023-07-31T14:23:23;18.20;99.90
17128;DHT22;8679;50.842;4.322;2023-07-31T14:25:49;18.20;99.90
17128;DHT22;8679;50.842;4.322;2023-07-31T14:28:15;18.20;99.90
17128;DHT22;8679;50.842;4.322;2023-07-31T14:30:40;18.20;99.90
17128;DHT22;8679;50.842;4.322;2023-07-31T14:33:06;18.20;99.90
17128;DHT22;8679;50.842;4.322;2023-07-31T14:35:32;18.20;99.90
17128;DHT22;8679;50.842;4.322;2023-07-31T14:37:57;18.20;99.90
17128;DHT22;8679;50.842;4.322;2023-07-31T14:40:23;18.20;99.90
17128;DHT22;8679;50.842;4.322;2023-07-31T14:42:49;18.20;99.90
17128;DHT22;8679;50.842;4.322;2023-07-31T14:45:14;18.10;99.90
17128;DHT22;8679;50.842;4.322;2023-07-31T14:47:40;18.10;99.90
17128;DHT22;8679;50.842;4.322;2023-07-31T14:50:06;18.20;99.90
17128;DHT22;8679;50.842;4.322;2023-07-31T14:52:31;18.20;99.90
17128;DHT22;8679;50.842;4.322;2023-07-31T14:54:57;18.20;99.90
17128;DHT22;8679;50.842;4.322;2023-07-31T14:59:49;18.20;99.90
17128;DHT22;8679;50.842;4.322;2023-07-31T16:25:10;18.10;99.90
17128;DHT22;8679;50.842;4.322;2023-07-31T16:27:36;18.00;99.90
17128;DHT22;8679;50.842;4.322;2023-07-31T16:30:03;18.00;99.90
17128;DHT22;8679;50.842;4.322;2023-07-31T16:32:29;18.00;99.90
17128;DHT22;8679;50.842;4.322;2023-07-31T16:34:55;18.00;99.90
17128;DHT22;8679;50.842;4.322;2023-07-31T16:37:21;18.00;99.90
17128;DHT22;8679;50.842;4.322;2023-07-31T16:39:47;18.00;99.90
17128;DHT22;8679;50.842;4.322;2023-07-31T16:42:14;18.00;99.90
17128;DHT22;8679;50.842;4.322;2023-07-31T16:44:40;18.00;99.90
17128;DHT22;8679;50.842;4.322;2023-07-31T16:47:06;18.00;99.90
17128;DHT22;8679;50.842;4.322;2023-07-31T16:49:31;18.00;99.90
17128;DHT22;8679;50.842;4.322;2023-07-31T16:51:57;18.00;99.90
17128;DHT22;8679;50.842;4.322;2023-07-31T16:54:24;18.00;99.90
17128;DHT22;8679;50.842;4.322;2023-07-31T16:56:49;18.00;99.90
17128;DHT22;8679;50.842;4.322;2023-07-31T16:59:16;18.00;99.90
17128;DHT22;8679;50.842;4.322;2023-07-31T17:01:42;18.00;99.90
17128;DHT22;8679;50.842;4.322;2023-07-31T17:04:08;18.00;99.90
17128;DHT22;8679;50.842;4.322;2023-07-31T17:06:33;18.00;99.90
17128;DHT22;8679;50.842;4.322;2023-07-31T17:09:00;18.00;99.90
17128;DHT22;8679;50.842;4.322;2023-07-31T17:11:25;18.00;99.90
17128;DHT22;8679;50.842;4.322;2023-07-31T17:13:51;18.00;99.90
17128;DHT22;8679;50.842;4.322;2023-07-31T17:16:20;18.00;99.90
17128;DHT22;8679;50.842;4.322;2023-07-31T17:18:46;18.00;99.90
17128;DHT22;8679;50.842;4.322;2023-07-31T17:21:12;18.00;99.90
17128;DHT22;8679;50.842;4.322;2023-07-31T17:23:38;18.10;99.90
17128;DHT22;8679;50.842;4.322;2023-07-31T17:26:04;18.10;99.90